sensor_id;sensor_type;location;lat;lon;timestamp;P1;durP1;ratioP1;P2;durP2;ratioP2
47844;SDS011;33605;48.822;8.796;2023-07-24T00:00:23;8.17;;;6.40;;
47844;SDS011;33605;48.822;8.796;2023-07-24T00:02:49;9.30;;;6.33;;
47844;SDS011;33605;48.822;8.796;2023-07-24T00:05:15;11.03;;;6.13;;
47844;SDS011;33605;48.822;8.796;2023-07-24T00:07:41;9.87;;;6.83;;
47844;SDS011;33605;48.822;8.796;2023-07-24T00:10:07;9.30;;;6.90;;
47844;SDS011;33605;48.822;8.796;2023-07-24T00:12:33;13.50;;;7.80;;
47844;SDS011;33605;48.822;8.796;2023-07-24T00:14:59;8.53;;;6.67;;
47844;SDS011;33605;48.822;8.796;2023-07-24T00:17:25;8.67;;;6.27;;
47844;SDS011;33605;48.822;8.796;2023-07-24T00:19:51;12.43;;;7.00;;
47844;SDS011;33605;48.822;8.796;2023-07-24T00:22:17;8.07;;;6.37;;
47844;SDS011;33605;48.822;8.796;2023-07-24T00:24:43;10.07;;;7.17;;
47844;SDS011;33605;48.822;8.796;2023-07-24T00:27:09;11.10;;;7.20;;
47844;SDS011;33605;48.822;8.796;2023-07-24T00:29:35;10.70;;;7.00;;
47844;SDS011;33605;48.822;8.796;2023-07-24T00:32:01;9.23;;;6.33;;
47844;SDS011;33605;48.822;8.796;2023-07-24T00:34:27;10.80;;;7.20;;
47844;SDS011;33605;48.822;8.796;2023-07-24T00:36:53;8.77;;;6.80;;
47844;SDS011;33605;48.822;8.796;2023-07-24T00:39:19;9.27;;;6.70;;
47844;SDS011;33605;48.822;8.796;2023-07-24T00:41:45;8.77;;;6.03;;
47844;SDS011;33605;48.822;8.796;2023-07-24T00:44:11;11.20;;;6.27;;
47844;SDS011;33605;48.822;8.796;2023-07-24T00:46:37;8.30;;;6.10;;
47844;SDS011;33605;48.822;8.796;2023-07-24T00:49:03;11.67;;;6.27;;
47844;SDS011;33605;48.822;8.796;2023-07-24T00:51:30;9.43;;;6.67;;
47844;SDS011;33605;48.822;8.796;2023-07-24T00:53:57;13.20;;;6.23;;
47844;SDS011;33605;48.822;8.796;2023-07-24T00:56:25;9.40;;;5.90;;
47844;SDS011;33605;48.822;8.796;2023-07-24T00:58:52;11.40;;;6.43;;
47844;SDS011;33605;48.822;8.796;2023-07-24T01:01:20;9.30;;;6.30;;
47844;SDS011;33605;48.822;8.796;2023-07-24T01:03:46;9.77;;;6.73;;
47844;SDS011;33605;48.822;8.796;2023-07-24T01:06:13;9.87;;;6.57;;
47844;SDS011;33605;48.822;8.796;2023-07-24T01:08:38;8.37;;;6.27;;
47844;SDS011;33605;48.822;8.796;2023-07-24T01:11:24;8.27;;;6.80;;
47844;SDS011;33605;48.822;8.796;2023-07-24T01:13:57;9.87;;;7.00;;
47844;SDS011;33605;48.822;8.796;2023-07-24T01:16:26;9.30;;;6.17;;
47844;SDS011;33605;48.822;8.796;2023-07-24T01:18:56;8.50;;;6.37;;
47844;SDS011;33605;48.822;8.796;2023-07-24T01:21:27;8.90;;;6.60;;
47844;SDS011;33605;48.822;8.796;2023-07-24T01:23:59;8.90;;;6.47;;
47844;SDS011;33605;48.822;8.796;2023-07-24T01:26:28;8.77;;;6.97;;
47844;SDS011;33605;48.822;8.796;2023-07-24T01:28:54;9.83;;;6.77;;
47844;SDS011;33605;48.822;8.796;2023-07-24T01:31:20;9.63;;;6.60;;
47844;SDS011;33605;48.822;8.796;2023-07-24T01:33:46;8.73;;;6.67;;
47844;SDS011;33605;48.822;8.796;2023-07-24T01:36:12;9.43;;;6.43;;
47844;SDS011;33605;48.822;8.796;2023-07-24T01:38:39;10.03;;;6.50;;
47844;SDS011;33605;48.822;8.796;2023-07-24T01:41:05;9.27;;;6.30;;
47844;SDS011;33605;48.822;8.796;2023-07-24T01:43:31;9.77;;;7.13;;
47844;SDS011;33605;48.822;8.796;2023-07-24T01:45:57;11.80;;;7.93;;
47844;SDS011;33605;48.822;8.796;2023-07-24T01:48:24;7.80;;;6.60;;
47844;SDS011;33605;48.822;8.796;2023-07-24T01:50:50;8.40;;;6.90;;
47844;SDS011;33605;48.822;8.796;2023-07-24T01:53:16;8.07;;;6.63;;
47844;SDS011;33605;48.822;8.796;2023-07-24T01:55:42;9.17;;;7.20;;
47844;SDS011;33605;48.822;8.796;2023-07-24T01:58:08;8.97;;;6.53;;
47844;SDS011;33605;48.822;8.796;2023-07-24T02:00:34;8.03;;;6.50;;
47844;SDS011;33605;48.822;8.796;2023-07-24T02:02:59;8.57;;;6.57;;
47844;SDS011;33605;48.822;8.796;2023-07-24T02:05:25;8.60;;;6.50;;
47844;SDS011;33605;48.822;8.796;2023-07-24T02:07:52;9.90;;;6.43;;
47844;SDS011;33605;48.822;8.796;2023-07-24T02:10:18;10.80;;;6.90;;
47844;SDS011;33605;48.822;8.796;2023-07-24T02:12:43;10.30;;;6.70;;
47844;SDS011;33605;48.822;8.796;2023-07-24T02:15:09;10.70;;;7.00;;
47844;SDS011;33605;48.822;8.796;2023-07-24T02:17:36;6.97;;;6.10;;
47844;SDS011;33605;48.822;8.796;2023-07-24T02:20:03;7.37;;;5.60;;
47844;SDS011;33605;48.822;8.796;2023-07-24T02:22:29;8.03;;;5.90;;
47844;SDS011;33605;48.822;8.796;2023-07-24T02:24:56;5.80;;;4.53;;
47844;SDS011;33605;48.822;8.796;2023-07-24T02:27:29;8.80;;;5.80;;
47844;SDS011;33605;48.822;8.796;2023-07-24T02:29:56;7.67;;;5.90;;
47844;SDS011;33605;48.822;8.796;2023-07-24T02:32:22;6.83;;;6.03;;
47844;SDS011;33605;48.822;8.796;2023-07-24T02:34:49;7.87;;;6.03;;
47844;SDS011;33605;48.822;8.796;2023-07-24T02:37:15;11.30;;;6.60;;
47844;SDS011;33605;48.822;8.796;2023-07-24T02:39:41;9.30;;;6.90;;
47844;SDS011;33605;48.822;8.796;2023-07-24T02:42:07;7.80;;;6.03;;
47844;SDS011;33605;48.822;8.796;2023-07-24T02:44:34;9.43;;;6.50;;
47844;SDS011;33605;48.822;8.796;2023-07-24T02:47:00;9.07;;;7.37;;
47844;SDS011;33605;48.822;8.796;2023-07-24T02:49:26;9.63;;;6.43;;
47844;SDS011;33605;48.822;8.796;2023-07-24T02:51:52;7.97;;;6.50;;
47844;SDS011;33605;48.822;8.796;2023-07-24T02:54:18;13.43;;;6.80;;
47844;SDS011;33605;48.822;8.796;2023-07-24T02:56:43;8.53;;;6.80;;
47844;SDS011;33605;48.822;8.796;2023-07-24T02:59:09;8.53;;;6.20;;
47844;SDS011;33605;48.822;8.796;2023-07-24T03:01:36;9.50;;;6.50;;
47844;SDS011;33605;48.822;8.796;2023-07-24T03:04:02;8.53;;;6.20;;
47844;SDS011;33605;48.822;8.796;2023-07-24T03:06:30;8.07;;;5.50;;
47844;SDS011;33605;48.822;8.796;2023-07-24T03:08:56;10.50;;;6.47;;
47844;SDS011;33605;48.822;8.796;2023-07-24T03:11:22;10.70;;;7.83;;
47844;SDS011;33605;48.822;8.796;2023-07-24T03:13:48;11.30;;;6.67;;
47844;SDS011;33605;48.822;8.796;2023-07-24T03:16:14;9.73;;;6.70;;
47844;SDS011;33605;48.822;8.796;2023-07-24T03:18:42;9.67;;;7.20;;
47844;SDS011;33605;48.822;8.796;2023-07-24T03:21:11;10.70;;;7.87;;
47844;SDS011;33605;48.822;8.796;2023-07-24T03:23:37;10.63;;;6.93;;
47844;SDS011;33605;48.822;8.796;2023-07-24T03:26:03;7.50;;;5.40;;
47844;SDS011;33605;48.822;8.796;2023-07-24T03:28:29;6.90;;;5.87;;
47844;SDS011;33605;48.822;8.796;2023-07-24T03:30:55;6.60;;;5.43;;
47844;SDS011;33605;48.822;8.796;2023-07-24T03:33:21;6.63;;;5.67;;
47844;SDS011;33605;48.822;8.796;2023-07-24T03:35:50;6.63;;;5.20;;
47844;SDS011;33605;48.822;8.796;2023-07-24T03:38:16;7.90;;;5.83;;
47844;SDS011;33605;48.822;8.796;2023-07-24T03:40:42;10.23;;;6.67;;
47844;SDS011;33605;48.822;8.796;2023-07-24T03:43:08;8.03;;;6.27;;
47844;SDS011;33605;48.822;8.796;2023-07-24T03:45:34;9.67;;;6.87;;
47844;SDS011;33605;48.822;8.796;2023-07-24T03:48:00;8.47;;;6.47;;
47844;SDS011;33605;48.822;8.796;2023-07-24T03:50:26;9.00;;;6.90;;
47844;SDS011;33605;48.822;8.796;2023-07-24T03:52:52;8.60;;;6.50;;
47844;SDS011;33605;48.822;8.796;2023-07-24T03:55:18;10.30;;;7.13;;
47844;SDS011;33605;48.822;8.796;2023-07-24T03:57:44;9.87;;;6.70;;
47844;SDS011;33605;48.822;8.796;2023-07-24T04:00:10;9.70;;;7.07;;
47844;SDS011;33605;48.822;8.796;2023-07-24T04:02:36;11.83;;;7.60;;
47844;SDS011;33605;48.822;8.796;2023-07-24T04:05:05;12.23;;;7.93;;
47844;SDS011;33605;48.822;8.796;2023-07-24T04:07:31;10.03;;;8.07;;
47844;SDS011;33605;48.822;8.796;2023-07-24T04:09:57;8.87;;;6.67;;
47844;SDS011;33605;48.822;8.796;2023-07-24T04:12:23;10.33;;;7.53;;
47844;SDS011;33605;48.822;8.796;2023-07-24T04:14:50;10.23;;;7.40;;
47844;SDS011;33605;48.822;8.796;2023-07-24T04:17:16;11.00;;;7.27;;
47844;SDS011;33605;48.822;8.796;2023-07-24T04:19:42;11.27;;;7.70;;
47844;SDS011;33605;48.822;8.796;2023-07-24T04:22:08;8.23;;;6.20;;
47844;SDS011;33605;48.822;8.796;2023-07-24T04:24:34;19.07;;;7.40;;
47844;SDS011;33605;48.822;8.796;2023-07-24T04:27:00;10.00;;;7.70;;
47844;SDS011;33605;48.822;8.796;2023-07-24T04:29:27;13.80;;;8.50;;
47844;SDS011;33605;48.822;8.796;2023-07-24T04:31:53;11.77;;;7.93;;
47844;SDS011;33605;48.822;8.796;2023-07-24T04:34:19;9.73;;;7.40;;
47844;SDS011;33605;48.822;8.796;2023-07-24T04:36:45;10.90;;;7.40;;
47844;SDS011;33605;48.822;8.796;2023-07-24T04:39:11;11.67;;;7.83;;
47844;SDS011;33605;48.822;8.796;2023-07-24T04:41:37;9.17;;;7.60;;
47844;SDS011;33605;48.822;8.796;2023-07-24T04:44:03;12.20;;;7.60;;
47844;SDS011;33605;48.822;8.796;2023-07-24T04:46:29;11.80;;;8.10;;
47844;SDS011;33605;48.822;8.796;2023-07-24T04:48:55;11.30;;;8.07;;
47844;SDS011;33605;48.822;8.796;2023-07-24T04:51:21;13.23;;;7.70;;
47844;SDS011;33605;48.822;8.796;2023-07-24T04:53:47;10.37;;;7.30;;
47844;SDS011;33605;48.822;8.796;2023-07-24T04:56:13;10.70;;;7.63;;
47844;SDS011;33605;48.822;8.796;2023-07-24T04:58:39;7.80;;;6.60;;
47844;SDS011;33605;48.822;8.796;2023-07-24T05:01:05;10.10;;;7.27;;
47844;SDS011;33605;48.822;8.796;2023-07-24T05:03:31;14.00;;;7.60;;
47844;SDS011;33605;48.822;8.796;2023-07-24T05:05:57;11.13;;;7.40;;
47844;SDS011;33605;48.822;8.796;2023-07-24T05:08:23;11.13;;;8.23;;
47844;SDS011;33605;48.822;8.796;2023-07-24T05:10:56;10.30;;;6.90;;
47844;SDS011;33605;48.822;8.796;2023-07-24T05:13:22;12.00;;;7.20;;
47844;SDS011;33605;48.822;8.796;2023-07-24T05:15:48;9.23;;;7.13;;
47844;SDS011;33605;48.822;8.796;2023-07-24T05:18:14;9.93;;;6.57;;
47844;SDS011;33605;48.822;8.796;2023-07-24T05:20:44;9.70;;;6.60;;
47844;SDS011;33605;48.822;8.796;2023-07-24T05:23:11;9.13;;;6.30;;
47844;SDS011;33605;48.822;8.796;2023-07-24T05:25:37;9.93;;;6.83;;
47844;SDS011;33605;48.822;8.796;2023-07-24T05:28:03;9.50;;;7.20;;
47844;SDS011;33605;48.822;8.796;2023-07-24T05:30:29;9.13;;;7.03;;
47844;SDS011;33605;48.822;8.796;2023-07-24T05:32:55;8.13;;;6.90;;
47844;SDS011;33605;48.822;8.796;2023-07-24T05:35:21;10.77;;;7.63;;
47844;SDS011;33605;48.822;8.796;2023-07-24T05:37:47;11.47;;;8.00;;
47844;SDS011;33605;48.822;8.796;2023-07-24T05:40:13;12.03;;;7.77;;
47844;SDS011;33605;48.822;8.796;2023-07-24T05:42:39;10.37;;;6.50;;
47844;SDS011;33605;48.822;8.796;2023-07-24T05:45:08;9.00;;;6.10;;
47844;SDS011;33605;48.822;8.796;2023-07-24T05:47:34;10.87;;;8.00;;
47844;SDS011;33605;48.822;8.796;2023-07-24T05:50:00;16.73;;;8.37;;
47844;SDS011;33605;48.822;8.796;2023-07-24T05:52:26;9.90;;;7.07;;
47844;SDS011;33605;48.822;8.796;2023-07-24T05:54:52;10.97;;;7.13;;
47844;SDS011;33605;48.822;8.796;2023-07-24T05:57:18;12.60;;;7.50;;
47844;SDS011;33605;48.822;8.796;2023-07-24T05:59:44;9.07;;;6.73;;
47844;SDS011;33605;48.822;8.796;2023-07-24T06:02:10;11.83;;;6.97;;
47844;SDS011;33605;48.822;8.796;2023-07-24T06:04:36;10.60;;;7.37;;
47844;SDS011;33605;48.822;8.796;2023-07-24T06:07:02;12.57;;;8.30;;
47844;SDS011;33605;48.822;8.796;2023-07-24T06:09:28;10.60;;;7.90;;
47844;SDS011;33605;48.822;8.796;2023-07-24T06:11:54;10.80;;;7.50;;
47844;SDS011;33605;48.822;8.796;2023-07-24T06:14:20;11.47;;;7.63;;
47844;SDS011;33605;48.822;8.796;2023-07-24T06:16:46;11.33;;;7.33;;
47844;SDS011;33605;48.822;8.796;2023-07-24T06:19:12;13.23;;;9.67;;
47844;SDS011;33605;48.822;8.796;2023-07-24T06:21:38;12.17;;;9.10;;
47844;SDS011;33605;48.822;8.796;2023-07-24T06:24:04;10.00;;;8.13;;
47844;SDS011;33605;48.822;8.796;2023-07-24T06:26:30;10.97;;;7.90;;
47844;SDS011;33605;48.822;8.796;2023-07-24T06:28:56;12.23;;;8.80;;
47844;SDS011;33605;48.822;8.796;2023-07-24T06:31:22;9.50;;;7.10;;
47844;SDS011;33605;48.822;8.796;2023-07-24T06:33:48;11.90;;;8.10;;
47844;SDS011;33605;48.822;8.796;2023-07-24T06:36:14;10.00;;;7.07;;
47844;SDS011;33605;48.822;8.796;2023-07-24T06:38:40;19.17;;;8.27;;
47844;SDS011;33605;48.822;8.796;2023-07-24T06:41:07;12.00;;;8.53;;
47844;SDS011;33605;48.822;8.796;2023-07-24T06:43:33;8.80;;;7.00;;
47844;SDS011;33605;48.822;8.796;2023-07-24T06:45:59;11.30;;;7.70;;
47844;SDS011;33605;48.822;8.796;2023-07-24T06:48:25;14.00;;;8.80;;
47844;SDS011;33605;48.822;8.796;2023-07-24T06:50:51;12.40;;;8.40;;
47844;SDS011;33605;48.822;8.796;2023-07-24T06:53:17;10.00;;;7.60;;
47844;SDS011;33605;48.822;8.796;2023-07-24T06:55:43;10.33;;;8.10;;
47844;SDS011;33605;48.822;8.796;2023-07-24T06:58:09;13.53;;;7.97;;
47844;SDS011;33605;48.822;8.796;2023-07-24T07:00:35;12.00;;;8.03;;
47844;SDS011;33605;48.822;8.796;2023-07-24T07:03:01;9.70;;;7.40;;
47844;SDS011;33605;48.822;8.796;2023-07-24T07:05:27;8.77;;;6.80;;
47844;SDS011;33605;48.822;8.796;2023-07-24T07:07:53;11.37;;;8.30;;
47844;SDS011;33605;48.822;8.796;2023-07-24T07:10:19;10.13;;;8.20;;
47844;SDS011;33605;48.822;8.796;2023-07-24T07:12:45;11.07;;;8.03;;
47844;SDS011;33605;48.822;8.796;2023-07-24T07:15:11;14.10;;;8.10;;
47844;SDS011;33605;48.822;8.796;2023-07-24T07:17:37;10.43;;;8.30;;
47844;SDS011;33605;48.822;8.796;2023-07-24T07:20:03;10.50;;;7.50;;
47844;SDS011;33605;48.822;8.796;2023-07-24T07:22:29;11.67;;;7.30;;
47844;SDS011;33605;48.822;8.796;2023-07-24T07:24:55;10.00;;;8.10;;
47844;SDS011;33605;48.822;8.796;2023-07-24T07:27:21;10.97;;;8.50;;
47844;SDS011;33605;48.822;8.796;2023-07-24T07:29:47;11.40;;;7.80;;
47844;SDS011;33605;48.822;8.796;2023-07-24T07:32:13;12.47;;;7.70;;
47844;SDS011;33605;48.822;8.796;2023-07-24T07:34:39;9.70;;;7.33;;
47844;SDS011;33605;48.822;8.796;2023-07-24T07:37:05;9.87;;;6.90;;
47844;SDS011;33605;48.822;8.796;2023-07-24T07:39:32;11.70;;;8.00;;
47844;SDS011;33605;48.822;8.796;2023-07-24T07:41:58;11.10;;;7.33;;
47844;SDS011;33605;48.822;8.796;2023-07-24T07:44:24;9.77;;;7.63;;
47844;SDS011;33605;48.822;8.796;2023-07-24T07:46:50;10.27;;;7.70;;
47844;SDS011;33605;48.822;8.796;2023-07-24T07:49:16;10.07;;;7.60;;
47844;SDS011;33605;48.822;8.796;2023-07-24T07:51:42;12.60;;;8.50;;
47844;SDS011;33605;48.822;8.796;2023-07-24T07:54:08;11.43;;;7.87;;
47844;SDS011;33605;48.822;8.796;2023-07-24T07:56:34;10.57;;;7.53;;
47844;SDS011;33605;48.822;8.796;2023-07-24T07:59:00;9.17;;;6.70;;
47844;SDS011;33605;48.822;8.796;2023-07-24T08:01:26;8.67;;;6.93;;
47844;SDS011;33605;48.822;8.796;2023-07-24T08:03:52;11.33;;;8.67;;
47844;SDS011;33605;48.822;8.796;2023-07-24T08:06:18;11.83;;;8.73;;
47844;SDS011;33605;48.822;8.796;2023-07-24T08:08:44;10.20;;;7.80;;
47844;SDS011;33605;48.822;8.796;2023-07-24T08:11:10;9.50;;;7.00;;
47844;SDS011;33605;48.822;8.796;2023-07-24T08:13:36;8.83;;;7.33;;
47844;SDS011;33605;48.822;8.796;2023-07-24T08:16:02;9.33;;;6.70;;
47844;SDS011;33605;48.822;8.796;2023-07-24T08:18:31;10.53;;;7.97;;
47844;SDS011;33605;48.822;8.796;2023-07-24T08:20:58;8.37;;;7.10;;
47844;SDS011;33605;48.822;8.796;2023-07-24T08:23:24;8.13;;;6.50;;
47844;SDS011;33605;48.822;8.796;2023-07-24T08:25:56;8.47;;;6.77;;
47844;SDS011;33605;48.822;8.796;2023-07-24T08:28:22;12.63;;;7.53;;
47844;SDS011;33605;48.822;8.796;2023-07-24T08:30:57;9.33;;;7.40;;
47844;SDS011;33605;48.822;8.796;2023-07-24T08:33:24;7.97;;;6.67;;
47844;SDS011;33605;48.822;8.796;2023-07-24T08:38:26;7.60;;;6.70;;
47844;SDS011;33605;48.822;8.796;2023-07-24T08:41:05;10.23;;;6.97;;
47844;SDS011;33605;48.822;8.796;2023-07-24T08:43:31;10.33;;;7.50;;
47844;SDS011;33605;48.822;8.796;2023-07-24T08:45:58;9.67;;;7.23;;
47844;SDS011;33605;48.822;8.796;2023-07-24T08:48:29;8.77;;;7.03;;
47844;SDS011;33605;48.822;8.796;2023-07-24T08:50:56;7.53;;;5.80;;
47844;SDS011;33605;48.822;8.796;2023-07-24T08:53:22;7.93;;;6.20;;
47844;SDS011;33605;48.822;8.796;2023-07-24T08:55:48;9.83;;;6.97;;
47844;SDS011;33605;48.822;8.796;2023-07-24T08:58:15;10.80;;;6.83;;
47844;SDS011;33605;48.822;8.796;2023-07-24T09:00:41;12.10;;;7.70;;
47844;SDS011;33605;48.822;8.796;2023-07-24T09:03:07;9.40;;;6.17;;
47844;SDS011;33605;48.822;8.796;2023-07-24T09:05:34;8.93;;;7.00;;
47844;SDS011;33605;48.822;8.796;2023-07-24T09:08:00;8.80;;;7.10;;
47844;SDS011;33605;48.822;8.796;2023-07-24T09:10:26;11.20;;;7.30;;
47844;SDS011;33605;48.822;8.796;2023-07-24T09:12:53;8.13;;;7.33;;
47844;SDS011;33605;48.822;8.796;2023-07-24T09:15:19;8.63;;;6.70;;
47844;SDS011;33605;48.822;8.796;2023-07-24T09:17:52;9.40;;;6.57;;
47844;SDS011;33605;48.822;8.796;2023-07-24T09:20:19;8.30;;;6.73;;
47844;SDS011;33605;48.822;8.796;2023-07-24T09:22:52;8.00;;;6.37;;
47844;SDS011;33605;48.822;8.796;2023-07-24T09:25:19;7.63;;;6.70;;
47844;SDS011;33605;48.822;8.796;2023-07-24T09:27:54;10.97;;;7.43;;
47844;SDS011;33605;48.822;8.796;2023-07-24T09:30:20;8.77;;;6.53;;
47844;SDS011;33605;48.822;8.796;2023-07-24T09:32:57;12.20;;;7.03;;
47844;SDS011;33605;48.822;8.796;2023-07-24T09:35:23;10.80;;;7.50;;
47844;SDS011;33605;48.822;8.796;2023-07-24T09:38:03;7.90;;;6.20;;
47844;SDS011;33605;48.822;8.796;2023-07-24T09:40:37;8.97;;;6.90;;
47844;SDS011;33605;48.822;8.796;2023-07-24T09:43:13;8.70;;;6.73;;
47844;SDS011;33605;48.822;8.796;2023-07-24T09:45:39;10.43;;;6.93;;
47844;SDS011;33605;48.822;8.796;2023-07-24T09:48:05;8.50;;;6.13;;
47844;SDS011;33605;48.822;8.796;2023-07-24T09:50:36;8.60;;;6.70;;
47844;SDS011;33605;48.822;8.796;2023-07-24T09:53:02;8.33;;;6.97;;
47844;SDS011;33605;48.822;8.796;2023-07-24T09:55:30;8.30;;;6.97;;
47844;SDS011;33605;48.822;8.796;2023-07-24T09:57:59;8.13;;;6.30;;
47844;SDS011;33605;48.822;8.796;2023-07-24T10:00:26;9.43;;;6.87;;
47844;SDS011;33605;48.822;8.796;2023-07-24T10:02:52;8.70;;;7.20;;
47844;SDS011;33605;48.822;8.796;2023-07-24T10:05:18;9.43;;;5.93;;
47844;SDS011;33605;48.822;8.796;2023-07-24T10:07:44;10.77;;;7.10;;
47844;SDS011;33605;48.822;8.796;2023-07-24T10:10:12;8.97;;;7.23;;
47844;SDS011;33605;48.822;8.796;2023-07-24T10:12:38;10.10;;;7.37;;
47844;SDS011;33605;48.822;8.796;2023-07-24T10:15:05;7.63;;;6.80;;
47844;SDS011;33605;48.822;8.796;2023-07-24T10:17:38;9.13;;;7.33;;
47844;SDS011;33605;48.822;8.796;2023-07-24T10:20:05;9.70;;;7.27;;
47844;SDS011;33605;48.822;8.796;2023-07-24T10:22:32;8.50;;;6.03;;
47844;SDS011;33605;48.822;8.796;2023-07-24T10:24:58;8.10;;;6.50;;
47844;SDS011;33605;48.822;8.796;2023-07-24T10:27:24;9.70;;;6.90;;
47844;SDS011;33605;48.822;8.796;2023-07-24T10:30:03;9.70;;;6.87;;
47844;SDS011;33605;48.822;8.796;2023-07-24T10:32:30;9.63;;;6.90;;
47844;SDS011;33605;48.822;8.796;2023-07-24T10:34:58;8.40;;;6.67;;
47844;SDS011;33605;48.822;8.796;2023-07-24T10:37:31;8.80;;;6.90;;
47844;SDS011;33605;48.822;8.796;2023-07-24T10:39:57;8.30;;;6.70;;
47844;SDS011;33605;48.822;8.796;2023-07-24T10:42:23;8.67;;;6.93;;
47844;SDS011;33605;48.822;8.796;2023-07-24T10:44:49;8.43;;;6.90;;
47844;SDS011;33605;48.822;8.796;2023-07-24T10:47:15;9.47;;;6.90;;
47844;SDS011;33605;48.822;8.796;2023-07-24T10:49:47;7.40;;;6.47;;
47844;SDS011;33605;48.822;8.796;2023-07-24T10:52:14;9.73;;;7.33;;
47844;SDS011;33605;48.822;8.796;2023-07-24T10:54:40;17.60;;;7.00;;
47844;SDS011;33605;48.822;8.796;2023-07-24T10:57:05;10.13;;;7.53;;
47844;SDS011;33605;48.822;8.796;2023-07-24T10:59:35;8.40;;;6.17;;
47844;SDS011;33605;48.822;8.796;2023-07-24T11:02:01;10.37;;;7.20;;
47844;SDS011;33605;48.822;8.796;2023-07-24T11:04:29;7.43;;;6.33;;
47844;SDS011;33605;48.822;8.796;2023-07-24T11:06:55;8.83;;;7.07;;
47844;SDS011;33605;48.822;8.796;2023-07-24T11:09:22;8.50;;;6.80;;
47844;SDS011;33605;48.822;8.796;2023-07-24T11:11:48;8.23;;;6.20;;
47844;SDS011;33605;48.822;8.796;2023-07-24T11:14:16;9.37;;;6.90;;
47844;SDS011;33605;48.822;8.796;2023-07-24T11:16:49;7.47;;;6.27;;
47844;SDS011;33605;48.822;8.796;2023-07-24T11:19:22;9.50;;;6.90;;
47844;SDS011;33605;48.822;8.796;2023-07-24T11:21:47;7.80;;;6.20;;
47844;SDS011;33605;48.822;8.796;2023-07-24T11:24:13;8.03;;;6.13;;
47844;SDS011;33605;48.822;8.796;2023-07-24T11:26:39;7.23;;;6.00;;
47844;SDS011;33605;48.822;8.796;2023-07-24T11:29:10;8.47;;;6.37;;
47844;SDS011;33605;48.822;8.796;2023-07-24T11:31:37;8.00;;;6.87;;
47844;SDS011;33605;48.822;8.796;2023-07-24T11:34:06;8.43;;;5.70;;
47844;SDS011;33605;48.822;8.796;2023-07-24T11:36:33;9.80;;;6.77;;
47844;SDS011;33605;48.822;8.796;2023-07-24T11:38:59;8.30;;;5.90;;
47844;SDS011;33605;48.822;8.796;2023-07-24T11:41:25;9.03;;;6.13;;
47844;SDS011;33605;48.822;8.796;2023-07-24T11:43:51;8.00;;;6.47;;
47844;SDS011;33605;48.822;8.796;2023-07-24T11:46:27;8.30;;;6.37;;
47844;SDS011;33605;48.822;8.796;2023-07-24T11:48:54;7.73;;;6.30;;
47844;SDS011;33605;48.822;8.796;2023-07-24T11:51:22;8.77;;;6.57;;
47844;SDS011;33605;48.822;8.796;2023-07-24T11:53:49;9.20;;;7.10;;
47844;SDS011;33605;48.822;8.796;2023-07-24T11:56:17;7.10;;;5.90;;
47844;SDS011;33605;48.822;8.796;2023-07-24T11:58:43;8.77;;;6.20;;
47844;SDS011;33605;48.822;8.796;2023-07-24T12:01:10;5.90;;;5.30;;
47844;SDS011;33605;48.822;8.796;2023-07-24T12:03:36;7.10;;;5.63;;
47844;SDS011;33605;48.822;8.796;2023-07-24T12:06:02;9.20;;;6.90;;
47844;SDS011;33605;48.822;8.796;2023-07-24T12:08:30;7.40;;;6.30;;
47844;SDS011;33605;48.822;8.796;2023-07-24T12:10:56;7.10;;;5.50;;
47844;SDS011;33605;48.822;8.796;2023-07-24T12:13:22;7.43;;;5.60;;
47844;SDS011;33605;48.822;8.796;2023-07-24T12:15:48;9.43;;;5.63;;
47844;SDS011;33605;48.822;8.796;2023-07-24T12:18:14;7.07;;;5.40;;
47844;SDS011;33605;48.822;8.796;2023-07-24T12:20:40;7.53;;;5.77;;
47844;SDS011;33605;48.822;8.796;2023-07-24T12:23:06;9.60;;;6.87;;
47844;SDS011;33605;48.822;8.796;2023-07-24T12:25:32;6.20;;;5.53;;
47844;SDS011;33605;48.822;8.796;2023-07-24T12:27:58;7.63;;;6.00;;
47844;SDS011;33605;48.822;8.796;2023-07-24T12:30:24;7.20;;;5.87;;
47844;SDS011;33605;48.822;8.796;2023-07-24T12:32:50;7.87;;;5.57;;
47844;SDS011;33605;48.822;8.796;2023-07-24T12:35:16;8.17;;;5.97;;
47844;SDS011;33605;48.822;8.796;2023-07-24T12:37:42;8.90;;;6.30;;
47844;SDS011;33605;48.822;8.796;2023-07-24T12:40:09;8.20;;;5.87;;
47844;SDS011;33605;48.822;8.796;2023-07-24T12:42:35;6.90;;;5.60;;
47844;SDS011;33605;48.822;8.796;2023-07-24T12:45:01;8.43;;;6.20;;
47844;SDS011;33605;48.822;8.796;2023-07-24T12:47:30;7.53;;;5.87;;
47844;SDS011;33605;48.822;8.796;2023-07-24T12:49:57;7.90;;;5.97;;
47844;SDS011;33605;48.822;8.796;2023-07-24T12:52:24;9.13;;;6.57;;
47844;SDS011;33605;48.822;8.796;2023-07-24T12:54:50;7.33;;;6.10;;
47844;SDS011;33605;48.822;8.796;2023-07-24T12:57:16;8.10;;;5.97;;
47844;SDS011;33605;48.822;8.796;2023-07-24T12:59:42;8.43;;;6.30;;
47844;SDS011;33605;48.822;8.796;2023-07-24T13:02:08;8.27;;;5.67;;
47844;SDS011;33605;48.822;8.796;2023-07-24T13:04:34;8.83;;;6.37;;
47844;SDS011;33605;48.822;8.796;2023-07-24T13:07:00;6.93;;;5.50;;
47844;SDS011;33605;48.822;8.796;2023-07-24T13:09:27;11.30;;;6.30;;
47844;SDS011;33605;48.822;8.796;2023-07-24T13:11:53;9.40;;;6.73;;
47844;SDS011;33605;48.822;8.796;2023-07-24T13:14:19;6.50;;;5.30;;
47844;SDS011;33605;48.822;8.796;2023-07-24T13:16:45;6.87;;;5.03;;
47844;SDS011;33605;48.822;8.796;2023-07-24T13:19:11;5.73;;;5.13;;
47844;SDS011;33605;48.822;8.796;2023-07-24T13:21:37;8.40;;;5.83;;
47844;SDS011;33605;48.822;8.796;2023-07-24T13:24:05;7.40;;;5.63;;
47844;SDS011;33605;48.822;8.796;2023-07-24T13:26:31;5.50;;;4.73;;
47844;SDS011;33605;48.822;8.796;2023-07-24T13:28:57;6.50;;;5.70;;
47844;SDS011;33605;48.822;8.796;2023-07-24T13:31:23;6.30;;;5.57;;
47844;SDS011;33605;48.822;8.796;2023-07-24T13:33:49;7.10;;;5.50;;
47844;SDS011;33605;48.822;8.796;2023-07-24T13:36:15;6.73;;;5.30;;
47844;SDS011;33605;48.822;8.796;2023-07-24T13:38:41;8.60;;;6.50;;
47844;SDS011;33605;48.822;8.796;2023-07-24T13:41:07;7.30;;;5.50;;
47844;SDS011;33605;48.822;8.796;2023-07-24T13:43:33;7.27;;;5.60;;
47844;SDS011;33605;48.822;8.796;2023-07-24T13:45:59;7.37;;;6.20;;
47844;SDS011;33605;48.822;8.796;2023-07-24T13:48:27;7.40;;;5.30;;
47844;SDS011;33605;48.822;8.796;2023-07-24T13:50:53;7.90;;;5.70;;
47844;SDS011;33605;48.822;8.796;2023-07-24T13:53:20;7.60;;;5.53;;
47844;SDS011;33605;48.822;8.796;2023-07-24T13:55:46;8.43;;;5.53;;
47844;SDS011;33605;48.822;8.796;2023-07-24T13:58:12;8.40;;;5.93;;
47844;SDS011;33605;48.822;8.796;2023-07-24T14:00:38;6.90;;;5.57;;
47844;SDS011;33605;48.822;8.796;2023-07-24T14:03:04;6.70;;;5.93;;
47844;SDS011;33605;48.822;8.796;2023-07-24T14:05:31;7.57;;;5.37;;
47844;SDS011;33605;48.822;8.796;2023-07-24T14:07:57;7.50;;;5.97;;
47844;SDS011;33605;48.822;8.796;2023-07-24T14:10:23;8.67;;;5.77;;
47844;SDS011;33605;48.822;8.796;2023-07-24T14:12:49;7.33;;;6.43;;
47844;SDS011;33605;48.822;8.796;2023-07-24T14:15:15;7.53;;;5.83;;
47844;SDS011;33605;48.822;8.796;2023-07-24T14:17:41;8.40;;;6.70;;
47844;SDS011;33605;48.822;8.796;2023-07-24T14:20:07;6.57;;;5.63;;
47844;SDS011;33605;48.822;8.796;2023-07-24T14:22:33;8.23;;;5.87;;
47844;SDS011;33605;48.822;8.796;2023-07-24T14:24:59;7.80;;;6.17;;
47844;SDS011;33605;48.822;8.796;2023-07-24T14:27:25;7.17;;;5.40;;
47844;SDS011;33605;48.822;8.796;2023-07-24T14:29:51;6.70;;;5.20;;
47844;SDS011;33605;48.822;8.796;2023-07-24T14:32:18;6.43;;;5.23;;
47844;SDS011;33605;48.822;8.796;2023-07-24T14:34:44;6.53;;;5.40;;
47844;SDS011;33605;48.822;8.796;2023-07-24T14:37:10;4.97;;;4.47;;
47844;SDS011;33605;48.822;8.796;2023-07-24T14:39:35;5.97;;;4.70;;
47844;SDS011;33605;48.822;8.796;2023-07-24T14:42:02;9.23;;;5.10;;